Time;durP1;ratioP1;P1;durP2;ratioP2;P2;SDS_P1;SDS_P2;PMS_P1;PMS_P2;Temp;Humidity;BMP_temperature;BMP_pressure;BME280_temperature;BME280_humidity;BME280_pressure;Samples;Min_cycle;Max_cycle;Signal;HPM_P1;HPM_P2
2021/12/29 00:01:22;;;;;;;23.70;12.77;;;-2.10;99.90;;;;;;5086356;28;20235;-70
2021/12/29 00:03:50;;;;;;;19.47;11.40;;;-2.10;99.90;;;;;;5074336;28;20217;-71
2021/12/29 00:06:17;;;;;;;20.87;11.90;;;-2.10;99.90;;;;;;5074460;28;20224;-71
2021/12/29 00:08:44;;;;;;;22.33;11.03;;;-2.00;99.90;;;;;;5074408;28;20205;-70
2021/12/29 00:11:11;;;;;;;23.47;11.73;;;-2.10;99.90;;;;;;5074746;28;20673;-71
2021/12/29 00:13:38;;;;;;;22.60;10.20;;;-2.10;99.90;;;;;;5074868;28;20281;-71
2021/12/29 00:16:06;;;;;;;21.20;11.73;;;-2.10;99.90;;;;;;5075112;28;20426;-71
2021/12/29 00:18:35;;;;;;;21.63;11.83;;;-2.10;99.90;;;;;;5076603;28;20291;-70
2021/12/29 00:21:06;;;;;;;20.40;11.67;;;-2.20;99.90;;;;;;5075603;28;20216;-72
2021/12/29 00:23:33;;;;;;;19.67;11.67;;;-2.20;99.90;;;;;;5075681;28;20213;-72
2021/12/29 00:26:01;;;;;;;21.83;12.63;;;-2.20;99.90;;;;;;5076263;28;20205;-70
2021/12/29 00:28:28;;;;;;;16.40;8.93;;;-2.20;99.90;;;;;;5074475;28;20240;-70
2021/12/29 00:30:55;;;;;;;27.83;13.20;;;-2.20;99.90;;;;;;5075462;28;20207;-70
2021/12/29 00:33:23;;;;;;;22.70;12.03;;;-2.20;99.90;;;;;;5076330;28;20205;-71
2021/12/29 00:35:50;;;;;;;25.60;13.70;;;-2.20;99.90;;;;;;5076687;28;20516;-72
2021/12/29 00:38:18;;;;;;;22.30;12.57;;;-2.20;99.90;;;;;;5077776;28;20268;-70
2021/12/29 00:40:45;;;;;;;21.90;12.97;;;-2.20;99.90;;;;;;5079965;28;20589;-70
2021/12/29 00:43:12;;;;;;;24.10;12.57;;;-2.20;99.90;;;;;;5076212;28;20752;-70
2021/12/29 00:45:40;;;;;;;23.63;12.63;;;-2.20;99.90;;;;;;5076057;28;20263;-70
2021/12/29 00:48:13;;;;;;;22.47;12.50;;;-2.20;99.90;;;;;;5075478;28;20652;-70
2021/12/29 00:50:40;;;;;;;25.70;12.47;;;-2.20;99.90;;;;;;5075689;28;20547;-71
2021/12/29 00:53:08;;;;;;;22.53;12.63;;;-2.30;99.90;;;;;;5074613;28;20200;-70
2021/12/29 00:55:36;;;;;;;21.10;12.10;;;-2.20;99.90;;;;;;5069000;28;20206;-70
2021/12/29 00:58:04;;;;;;;24.67;12.57;;;-2.20;99.90;;;;;;5075470;28;20757;-70
2021/12/29 01:00:32;;;;;;;22.73;11.57;;;-2.20;99.90;;;;;;5075751;28;20209;-70
2021/12/29 01:02:58;;;;;;;21.53;11.47;;;-2.20;99.90;;;;;;5075631;28;20213;-70
2021/12/29 01:05:26;;;;;;;25.63;12.67;;;-2.10;99.90;;;;;;5074799;28;20480;-69
2021/12/29 01:07:53;;;;;;;24.77;12.73;;;-2.10;99.90;;;;;;5073908;28;20213;-70
2021/12/29 01:10:20;;;;;;;22.73;12.97;;;-2.20;99.90;;;;;;5074367;28;20203;-70
2021/12/29 01:12:54;;;;;;;21.83;11.80;;;-2.10;99.90;;;;;;5074254;28;20205;-70
2021/12/29 01:15:27;;;;;;;19.77;10.67;;;-2.10;99.90;;;;;;5075577;28;20258;-71
2021/12/29 01:17:56;;;;;;;20.37;11.20;;;-2.10;99.90;;;;;;5075704;28;20212;-70
2021/12/29 01:20:24;;;;;;;20.30;11.30;;;-2.10;99.90;;;;;;5075976;28;20658;-71
2021/12/29 01:22:51;;;;;;;22.13;12.17;;;-2.10;99.90;;;;;;5076395;28;20225;-69
2021/12/29 01:25:18;;;;;;;19.27;11.33;;;-2.10;99.90;;;;;;5080900;28;20213;-70
2021/12/29 01:27:45;;;;;;;22.63;11.40;;;-2.00;99.90;;;;;;5075103;28;20268;-70
2021/12/29 01:30:14;;;;;;;20.40;10.70;;;-2.00;99.90;;;;;;5075591;28;20270;-70
2021/12/29 01:32:42;;;;;;;19.77;11.83;;;-2.00;99.90;;;;;;5075427;28;20219;-70
2021/12/29 01:35:11;;;;;;;19.30;11.00;;;-2.00;99.90;;;;;;5075595;28;20197;-70
2021/12/29 01:37:39;;;;;;;21.13;12.57;;;-2.00;99.90;;;;;;5075018;28;20743;-70
2021/12/29 01:40:10;;;;;;;16.10;10.23;;;-2.00;99.90;;;;;;5075361;28;20694;-70
2021/12/29 01:42:36;;;;;;;17.60;11.50;;;-2.00;99.90;;;;;;5072592;28;20182;-70
2021/12/29 01:45:05;;;;;;;24.20;11.53;;;-2.00;99.90;;;;;;5064769;28;20251;-70
2021/12/29 01:47:33;;;;;;;22.47;11.17;;;-2.00;99.90;;;;;;5076038;28;20209;-70
2021/12/29 01:50:01;;;;;;;20.40;11.53;;;-2.00;99.90;;;;;;5074735;28;20208;-69
2021/12/29 01:52:34;;;;;;;18.37;10.50;;;-2.00;99.90;;;;;;5076916;28;20201;-70
2021/12/29 01:55:00;;;;;;;17.87;10.90;;;-2.00;99.90;;;;;;5079533;28;20212;-69
2021/12/29 01:57:27;;;;;;;17.17;11.67;;;-1.90;99.90;;;;;;5076494;28;20231;-70
2021/12/29 01:59:54;;;;;;;18.33;11.80;;;-2.00;99.90;;;;;;5076755;28;20300;-69
2021/12/29 02:02:21;;;;;;;16.33;10.47;;;-2.00;99.90;;;;;;5076488;28;20215;-69
2021/12/29 02:04:50;;;;;;;15.70;9.53;;;-2.00;99.90;;;;;;5075556;28;20229;-70
2021/12/29 02:07:17;;;;;;;16.47;9.33;;;-2.00;99.90;;;;;;5077925;28;20209;-70
2021/12/29 02:09:44;;;;;;;19.43;10.63;;;-2.00;99.90;;;;;;5083868;28;20300;-70
2021/12/29 02:12:11;;;;;;;20.13;10.60;;;-2.00;99.90;;;;;;5079041;28;20201;-70
2021/12/29 02:14:38;;;;;;;18.63;10.37;;;-2.00;99.90;;;;;;5080421;28;20235;-70
2021/12/29 02:17:05;;;;;;;20.50;11.27;;;-1.90;99.90;;;;;;5079074;28;20237;-70
2021/12/29 02:19:32;;;;;;;19.93;10.70;;;-2.00;99.90;;;;;;5079577;28;20595;-71
2021/12/29 02:22:08;;;;;;;18.60;9.77;;;-2.00;99.90;;;;;;5079209;28;20220;-70
2021/12/29 02:24:39;;;;;;;18.37;10.77;;;-2.00;99.90;;;;;;5085807;28;20208;-70
2021/12/29 02:27:07;;;;;;;19.63;10.70;;;-2.00;99.90;;;;;;5083902;28;20273;-70
2021/12/29 02:29:34;;;;;;;18.40;11.50;;;-2.00;99.90;;;;;;5079427;28;20229;-69
2021/12/29 02:32:02;;;;;;;17.80;11.10;;;-2.00;99.90;;;;;;5079120;28;20619;-70
2021/12/29 02:34:29;;;;;;;21.30;11.47;;;-2.00;99.90;;;;;;5066025;28;20205;-70
2021/12/29 02:36:58;;;;;;;21.57;11.00;;;-2.10;99.90;;;;;;5080207;28;20241;-69
2021/12/29 02:39:26;;;;;;;18.50;11.87;;;-2.00;99.90;;;;;;5080104;28;20201;-70
2021/12/29 02:41:55;;;;;;;22.00;10.83;;;-2.00;99.90;;;;;;5078142;28;20201;-70
2021/12/29 02:44:27;;;;;;;21.73;10.93;;;-2.00;99.90;;;;;;5078630;28;20221;-70
2021/12/29 02:46:55;;;;;;;20.33;11.87;;;-2.00;99.90;;;;;;5077936;28;20271;-70
2021/12/29 02:49:23;;;;;;;19.97;11.80;;;-2.10;99.90;;;;;;5078758;28;20247;-71
2021/12/29 02:51:51;;;;;;;21.13;11.13;;;-2.10;99.90;;;;;;5078449;28;20307;-70
2021/12/29 02:54:18;;;;;;;20.27;11.07;;;-2.10;99.90;;;;;;5079373;28;20205;-70
2021/12/29 02:56:48;;;;;;;16.90;10.17;;;-2.10;99.90;;;;;;5078129;28;20610;-71
2021/12/29 02:59:15;;;;;;;23.13;11.80;;;-2.10;99.90;;;;;;5077796;28;20202;-70
2021/12/29 03:01:42;;;;;;;19.53;11.97;;;-2.10;99.90;;;;;;5077603;28;20304;-69
2021/12/29 03:04:11;;;;;;;20.77;11.23;;;-2.10;99.90;;;;;;5078637;28;20227;-69
2021/12/29 03:06:38;;;;;;;20.50;12.53;;;-2.10;99.90;;;;;;5078359;28;20265;-70
2021/12/29 03:09:07;;;;;;;22.73;11.77;;;-2.10;99.90;;;;;;5078174;28;20213;-70
2021/12/29 03:11:34;;;;;;;22.27;12.50;;;-2.10;99.90;;;;;;5077102;28;20291;-70
2021/12/29 03:14:05;;;;;;;24.77;12.13;;;-2.10;99.90;;;;;;5077178;28;20205;-71
2021/12/29 03:16:33;;;;;;;19.00;11.23;;;-2.10;99.90;;;;;;5077780;28;20201;-70
2021/12/29 03:19:00;;;;;;;22.00;12.00;;;-2.10;99.90;;;;;;5077546;28;20316;-70
2021/12/29 03:21:27;;;;;;;20.53;12.33;;;-2.10;99.90;;;;;;5077579;28;20205;-70
2021/12/29 03:23:54;;;;;;;18.37;11.27;;;-2.10;99.90;;;;;;5080538;28;20221;-70
2021/12/29 03:26:20;;;;;;;20.67;11.87;;;-2.10;99.90;;;;;;5078223;28;20259;-70
2021/12/29 03:28:49;;;;;;;22.50;12.57;;;-2.10;99.90;;;;;;5077160;28;20241;-71
2021/12/29 03:31:18;;;;;;;21.17;11.53;;;-2.10;99.90;;;;;;5077149;28;20233;-70
2021/12/29 03:33:46;;;;;;;22.03;11.97;;;-2.00;99.90;;;;;;5077190;28;20263;-70
2021/12/29 03:36:13;;;;;;;17.97;10.00;;;-2.00;99.90;;;;;;5078670;28;20201;-71
2021/12/29 03:38:42;;;;;;;18.13;11.40;;;-2.00;99.90;;;;;;5079329;28;20213;-71
2021/12/29 03:41:12;;;;;;;23.17;11.97;;;-2.00;99.90;;;;;;5079602;28;20288;-71
2021/12/29 03:43:40;;;;;;;20.57;12.10;;;-2.00;99.90;;;;;;5077775;28;20683;-71
2021/12/29 03:46:07;;;;;;;18.73;11.87;;;-2.00;99.90;;;;;;5076990;28;20269;-70
2021/12/29 03:48:38;;;;;;;23.10;12.07;;;-1.90;99.90;;;;;;5076750;28;20224;-70
2021/12/29 03:51:06;;;;;;;21.57;11.93;;;-1.90;99.90;;;;;;5076495;28;20288;-70
2021/12/29 03:53:34;;;;;;;21.73;12.33;;;-1.90;99.90;;;;;;5077686;28;20244;-69
2021/12/29 03:56:01;;;;;;;22.03;12.37;;;-1.90;99.90;;;;;;5091084;28;20212;-70
2021/12/29 03:58:29;;;;;;;25.03;13.13;;;-1.90;99.90;;;;;;5080557;28;20288;-70
2021/12/29 04:01:00;;;;;;;23.27;12.80;;;-2.00;99.90;;;;;;5077145;28;20292;-70
2021/12/29 04:03:27;;;;;;;25.60;11.97;;;-2.00;99.90;;;;;;5077245;28;20662;-71
2021/12/29 04:05:56;;;;;;;22.50;12.27;;;-2.00;99.90;;;;;;5077559;28;20206;-70
2021/12/29 04:08:23;;;;;;;21.47;11.93;;;-2.00;99.90;;;;;;5080805;28;20316;-69
2021/12/29 04:10:50;;;;;;;21.00;11.47;;;-2.00;99.90;;;;;;5076851;28;20213;-69
2021/12/29 04:13:17;;;;;;;25.13;12.77;;;-2.00;99.90;;;;;;5076438;28;20574;-71
2021/12/29 04:15:43;;;;;;;24.60;13.07;;;-2.00;99.90;;;;;;5074868;28;20223;-69
2021/12/29 04:18:25;;;;;;;21.47;12.60;;;-2.00;99.90;;;;;;5076185;28;20201;-70
2021/12/29 04:20:57;;;;;;;18.60;11.27;;;-2.00;99.90;;;;;;5061507;28;20197;-70
2021/12/29 04:23:28;;;;;;;23.03;13.13;;;-2.00;99.90;;;;;;5082434;28;20196;-71
2021/12/29 04:25:56;;;;;;;21.47;12.13;;;-2.00;99.90;;;;;;5076498;28;20582;-70
2021/12/29 04:28:26;;;;;;;19.80;11.93;;;-1.90;99.90;;;;;;5078117;28;20275;-71
2021/12/29 04:30:55;;;;;;;22.70;12.83;;;-1.90;99.90;;;;;;5077301;28;20251;-69
2021/12/29 04:33:23;;;;;;;24.00;12.57;;;-1.90;99.90;;;;;;5075189;28;20220;-69
2021/12/29 04:35:50;;;;;;;23.50;12.67;;;-1.90;99.90;;;;;;5074813;28;20212;-70
2021/12/29 04:38:18;;;;;;;24.57;12.17;;;-1.90;99.90;;;;;;5074301;28;20755;-70
2021/12/29 04:40:46;;;;;;;24.27;11.37;;;-1.90;99.90;;;;;;5075577;28;20213;-70
2021/12/29 04:43:13;;;;;;;21.67;12.17;;;-1.90;99.90;;;;;;5077917;28;20204;-69
2021/12/29 04:45:40;;;;;;;25.27;12.67;;;-1.90;99.90;;;;;;5080966;28;20225;-70
2021/12/29 04:48:12;;;;;;;22.77;13.63;;;-2.00;99.90;;;;;;5073152;28;20197;-69
2021/12/29 04:50:40;;;;;;;22.10;12.70;;;-2.00;99.90;;;;;;5064850;28;20205;-71
2021/12/29 04:53:10;;;;;;;23.27;13.23;;;-2.00;99.90;;;;;;5075059;28;20248;-70
2021/12/29 04:55:39;;;;;;;22.57;12.83;;;-2.00;99.90;;;;;;5075076;28;20205;-71
2021/12/29 04:58:07;;;;;;;21.80;11.17;;;-2.00;99.90;;;;;;5081677;28;20227;-70
2021/12/29 05:00:35;;;;;;;19.23;10.87;;;-2.00;99.90;;;;;;5076361;28;20205;-70
2021/12/29 05:03:03;;;;;;;22.67;12.07;;;-2.00;99.90;;;;;;5077456;28;20296;-70
2021/12/29 05:05:52;;;;;;;23.93;13.20;;;-2.10;99.90;;;;;;5075289;28;20221;-69
2021/12/29 05:08:27;;;;;;;25.77;12.97;;;-2.10;99.90;;;;;;5082617;28;20268;-72
2021/12/29 05:10:57;;;;;;;21.03;12.57;;;-2.10;99.90;;;;;;5087384;28;20189;-71
2021/12/29 05:13:27;;;;;;;22.03;13.40;;;-2.00;99.90;;;;;;5077241;28;20745;-69
2021/12/29 05:15:55;;;;;;;22.80;12.17;;;-2.00;99.90;;;;;;5076401;28;20301;-70
2021/12/29 05:18:22;;;;;;;24.60;12.43;;;-2.00;99.90;;;;;;5075876;28;20212;-71
2021/12/29 05:20:49;;;;;;;22.27;12.00;;;-2.00;99.90;;;;;;5062012;28;20220;-70
2021/12/29 05:23:16;;;;;;;26.37;13.30;;;-2.00;99.90;;;;;;5076319;28;20219;-70
2021/12/29 05:25:43;;;;;;;23.50;13.20;;;-2.10;99.90;;;;;;5087211;28;20261;-70
2021/12/29 05:28:10;;;;;;;26.77;13.73;;;-2.10;99.90;;;;;;5074695;28;20237;-71
2021/12/29 05:30:39;;;;;;;20.80;10.90;;;-2.10;99.90;;;;;;5076941;28;20208;-71
2021/12/29 05:33:06;;;;;;;20.93;11.30;;;-2.10;99.90;;;;;;5084791;28;20234;-70
2021/12/29 05:35:34;;;;;;;24.57;14.10;;;-2.10;99.90;;;;;;5079425;28;20207;-69
2021/12/29 05:38:01;;;;;;;24.20;12.60;;;-2.20;99.90;;;;;;5076015;28;20261;-70
2021/12/29 05:40:28;;;;;;;18.13;11.93;;;-2.20;99.90;;;;;;5075313;28;20491;-70
2021/12/29 05:42:55;;;;;;;23.37;13.80;;;-2.20;99.90;;;;;;5075788;28;20212;-70
2021/12/29 05:45:23;;;;;;;24.80;13.87;;;-2.20;99.90;;;;;;5077661;28;20362;-71
2021/12/29 05:47:52;;;;;;;25.83;14.60;;;-2.30;99.90;;;;;;5079921;28;20211;-70
2021/12/29 05:50:22;;;;;;;27.93;13.60;;;-2.20;99.90;;;;;;5079708;28;20287;-70
2021/12/29 05:52:49;;;;;;;19.00;11.20;;;-2.20;99.90;;;;;;5079927;28;20240;-70
2021/12/29 05:55:16;;;;;;;28.03;12.83;;;-2.20;99.90;;;;;;5079450;28;20205;-70
2021/12/29 05:57:43;;;;;;;21.97;12.47;;;-2.30;99.90;;;;;;5078595;28;20305;-70
2021/12/29 06:00:13;;;;;;;25.27;12.73;;;-2.30;99.90;;;;;;5079273;28;20203;-70
2021/12/29 06:02:40;;;;;;;26.40;13.63;;;-2.30;99.90;;;;;;5087979;28;20296;-70
2021/12/29 06:05:10;;;;;;;21.80;12.60;;;-2.30;99.90;;;;;;5076211;28;20224;-70
2021/12/29 06:07:38;;;;;;;22.63;12.43;;;-2.20;99.90;;;;;;5076875;28;20205;-70
2021/12/29 06:10:07;;;;;;;23.43;12.90;;;-2.20;99.90;;;;;;5077000;28;20209;-71
2021/12/29 06:12:35;;;;;;;26.70;12.87;;;-2.20;99.90;;;;;;5077769;28;20201;-70
2021/12/29 06:15:02;;;;;;;24.40;13.20;;;-2.10;99.90;;;;;;5077688;28;20231;-70
2021/12/29 06:17:28;;;;;;;26.53;14.23;;;-2.20;99.90;;;;;;5063949;28;20211;-70
2021/12/29 06:19:56;;;;;;;23.77;13.80;;;-2.20;99.90;;;;;;5077143;28;20211;-71
2021/12/29 06:22:24;;;;;;;25.80;13.20;;;-2.10;99.90;;;;;;5077553;28;20221;-71
2021/12/29 06:24:52;;;;;;;24.87;13.13;;;-2.10;99.90;;;;;;5077947;28;20769;-70
2021/12/29 06:27:20;;;;;;;25.00;13.27;;;-2.10;99.90;;;;;;5077884;28;20221;-70
2021/12/29 06:29:47;;;;;;;22.70;12.80;;;-2.10;99.90;;;;;;5079973;28;20203;-70
2021/12/29 06:32:14;;;;;;;22.70;12.73;;;-2.10;99.90;;;;;;5080346;28;20697;-70
2021/12/29 06:34:41;;;;;;;23.53;13.30;;;-2.10;99.90;;;;;;5077774;28;20315;-70
2021/12/29 06:37:12;;;;;;;26.07;12.93;;;-2.10;99.90;;;;;;5079136;28;20212;-70
2021/12/29 06:39:40;;;;;;;25.67;13.50;;;-2.10;99.90;;;;;;5079285;28;20852;-71
2021/12/29 06:42:08;;;;;;;22.70;12.77;;;-2.00;99.90;;;;;;5078963;28;20277;-71
2021/12/29 06:44:35;;;;;;;26.90;13.90;;;-2.00;99.90;;;;;;5077214;28;20216;-72
2021/12/29 06:47:02;;;;;;;25.93;12.90;;;-2.00;99.90;;;;;;5077462;28;20209;-71
2021/12/29 06:49:29;;;;;;;29.27;14.60;;;-2.00;99.90;;;;;;5077429;28;20274;-71
2021/12/29 06:51:56;;;;;;;28.07;14.60;;;-2.00;99.90;;;;;;5077778;28;20259;-70
2021/12/29 06:54:23;;;;;;;28.20;14.87;;;-2.00;99.90;;;;;;5077423;28;20294;-71
2021/12/29 06:56:51;;;;;;;34.87;15.57;;;-2.00;99.90;;;;;;5076004;28;20265;-71
2021/12/29 06:59:18;;;;;;;26.50;13.90;;;-2.10;99.90;;;;;;5077286;28;20201;-71
2021/12/29 07:01:45;;;;;;;24.80;13.80;;;-2.10;99.90;;;;;;5077699;28;20273;-69
2021/12/29 07:04:12;;;;;;;31.47;15.20;;;-2.10;99.90;;;;;;5075300;28;20292;-70
2021/12/29 07:06:39;;;;;;;32.87;15.53;;;-2.20;99.90;;;;;;5077635;28;20232;-71
2021/12/29 07:09:06;;;;;;;32.13;14.77;;;-2.20;99.90;;;;;;5078592;28;20296;-71
2021/12/29 07:11:36;;;;;;;33.47;13.67;;;-2.20;99.90;;;;;;5076919;28;20685;-71
2021/12/29 07:14:05;;;;;;;24.67;14.43;;;-2.20;99.90;;;;;;5077599;28;20205;-75
2021/12/29 07:16:33;;;;;;;29.17;14.73;;;-2.20;99.90;;;;;;5074399;28;20201;-76
2021/12/29 07:18:59;;;;;;;30.73;15.97;;;-2.20;99.90;;;;;;5077429;28;20221;-73
2021/12/29 07:21:27;;;;;;;31.97;15.10;;;-2.20;99.90;;;;;;5076260;28;20205;-75
2021/12/29 07:23:54;;;;;;;32.40;16.20;;;-2.20;99.90;;;;;;5070719;28;20209;-77
2021/12/29 07:26:21;;;;;;;30.27;14.73;;;-2.20;99.90;;;;;;5080868;28;20230;-73
2021/12/29 07:28:48;;;;;;;31.67;15.70;;;-2.20;99.90;;;;;;5075872;28;20240;-73
2021/12/29 07:31:16;;;;;;;29.27;13.87;;;-2.20;99.90;;;;;;5067129;28;20300;-73
2021/12/29 07:33:43;;;;;;;34.33;15.83;;;-2.20;99.90;;;;;;5075304;28;20296;-70
2021/12/29 07:36:11;;;;;;;30.87;14.33;;;-2.20;99.90;;;;;;5074255;28;20502;-68
2021/12/29 07:38:38;;;;;;;27.37;15.47;;;-2.10;99.90;;;;;;5083716;28;20213;-68
2021/12/29 07:41:05;;;;;;;32.87;15.97;;;-2.20;99.90;;;;;;5074865;28;20197;-69
2021/12/29 07:43:34;;;;;;;49.67;17.00;;;-2.20;99.90;;;;;;5074094;28;20205;-70
2021/12/29 07:46:01;;;;;;;26.30;13.23;;;-2.10;99.90;;;;;;5074201;28;20221;-69
2021/12/29 07:48:31;;;;;;;32.87;15.33;;;-2.20;99.90;;;;;;5074350;28;20197;-68
2021/12/29 07:50:59;;;;;;;30.67;15.47;;;-2.10;99.90;;;;;;5075146;28;20262;-68
2021/12/29 07:53:26;;;;;;;28.30;16.20;;;-2.10;99.90;;;;;;5074625;28;20205;-68
2021/12/29 07:55:53;;;;;;;32.53;17.13;;;-2.10;99.90;;;;;;5074634;28;20296;-67
2021/12/29 07:58:20;;;;;;;36.30;17.37;;;-2.10;99.90;;;;;;5073566;28;20198;-67
2021/12/29 08:00:48;;;;;;;38.13;17.00;;;-2.10;99.90;;;;;;5072918;28;20286;-67
2021/12/29 08:03:17;;;;;;;35.03;16.30;;;-2.10;99.90;;;;;;5075285;28;20213;-68
2021/12/29 08:05:46;;;;;;;35.67;17.70;;;-2.10;99.90;;;;;;5075216;28;20272;-68
2021/12/29 08:08:13;;;;;;;36.27;16.27;;;-2.10;99.90;;;;;;5076013;28;20237;-69
2021/12/29 08:10:41;;;;;;;37.33;15.90;;;-2.10;99.90;;;;;;5076413;28;20248;-68
2021/12/29 08:13:09;;;;;;;38.03;18.37;;;-2.10;99.90;;;;;;5063631;28;20727;-67
2021/12/29 08:15:37;;;;;;;37.63;18.50;;;-2.10;99.90;;;;;;5072527;28;20207;-69
2021/12/29 08:18:06;;;;;;;36.40;18.37;;;-2.10;99.90;;;;;;5074958;28;20266;-69
2021/12/29 08:20:35;;;;;;;37.03;19.20;;;-2.10;99.90;;;;;;5075311;28;20628;-69
2021/12/29 08:23:04;;;;;;;37.43;20.30;;;-2.10;99.90;;;;;;5070194;28;20209;-68
2021/12/29 08:25:32;;;;;;;37.83;18.57;;;-2.10;99.90;;;;;;5069890;28;20284;-68
2021/12/29 08:27:59;;;;;;;44.03;18.97;;;-2.10;99.90;;;;;;5073750;28;20316;-68
2021/12/29 08:30:27;;;;;;;36.20;18.57;;;-2.00;99.90;;;;;;5072846;28;20204;-68
2021/12/29 08:32:53;;;;;;;41.37;18.20;;;-2.00;99.90;;;;;;5072727;28;20209;-67
2021/12/29 08:35:21;;;;;;;42.63;20.07;;;-2.00;99.90;;;;;;5072501;28;20205;-68
2021/12/29 08:37:48;;;;;;;37.37;19.17;;;-2.00;99.90;;;;;;5072583;28;20205;-67
2021/12/29 08:40:18;;;;;;;30.70;17.00;;;-2.00;99.90;;;;;;5072057;28;20216;-67
2021/12/29 08:42:46;;;;;;;41.90;19.23;;;-2.00;99.90;;;;;;5073726;28;20725;-68
2021/12/29 08:45:14;;;;;;;35.33;18.93;;;-1.90;99.90;;;;;;5073417;28;20229;-68
2021/12/29 08:47:42;;;;;;;37.03;18.77;;;-1.90;99.90;;;;;;5073394;28;20216;-69
2021/12/29 08:50:11;;;;;;;39.27;20.17;;;-1.90;99.90;;;;;;5072770;28;20306;-67
2021/12/29 08:52:39;;;;;;;37.00;18.40;;;-1.90;99.90;;;;;;5073951;28;20237;-67
2021/12/29 08:55:09;;;;;;;40.70;18.60;;;-1.80;99.90;;;;;;5074335;28;20202;-72
2021/12/29 08:57:37;;;;;;;37.20;16.73;;;-1.80;99.90;;;;;;5073977;28;20678;-69
2021/12/29 09:00:06;;;;;;;38.40;20.47;;;-1.70;99.90;;;;;;5072943;28;20299;-68
2021/12/29 09:02:33;;;;;;;49.13;26.02;;;-1.70;99.90;;;;;;5068618;28;20806;-67
2021/12/29 09:05:00;;;;;;;42.67;20.70;;;-1.70;99.90;;;;;;5070390;28;20220;-68
2021/12/29 09:07:27;;;;;;;46.00;22.03;;;-1.70;99.90;;;;;;5070342;28;20685;-66
2021/12/29 09:09:54;;;;;;;42.57;20.97;;;-1.70;99.90;;;;;;5070863;28;20209;-68
2021/12/29 09:12:20;;;;;;;43.60;21.60;;;-1.60;99.90;;;;;;5070689;28;20523;-68
2021/12/29 09:14:49;;;;;;;38.00;19.47;;;-1.60;99.90;;;;;;5071296;28;20577;-67
2021/12/29 09:17:16;;;;;;;35.03;19.37;;;-1.50;99.90;;;;;;5067092;28;20270;-67
2021/12/29 09:19:44;;;;;;;40.77;20.20;;;-1.50;99.90;;;;;;5069506;28;20209;-67
2021/12/29 09:22:12;;;;;;;37.50;19.37;;;-1.40;99.90;;;;;;5071086;28;20209;-70
2021/12/29 09:24:42;;;;;;;43.00;21.27;;;-1.30;99.90;;;;;;5072048;28;20296;-76
2021/12/29 09:27:09;;;;;;;40.70;20.57;;;-1.30;99.90;;;;;;5073531;28;20229;-74
2021/12/29 09:29:37;;;;;;;43.40;20.60;;;-1.20;99.90;;;;;;5070278;28;20348;-74
2021/12/29 09:32:06;;;;;;;38.63;19.30;;;-1.20;99.90;;;;;;5071405;28;20228;-75
2021/12/29 09:34:34;;;;;;;39.80;20.80;;;-1.20;99.90;;;;;;5068498;28;20237;-75
2021/12/29 09:37:02;;;;;;;40.03;19.57;;;-1.20;99.90;;;;;;5069097;28;20217;-75
2021/12/29 09:39:29;;;;;;;41.63;20.30;;;-1.20;99.90;;;;;;5068440;28;20639;-75
2021/12/29 09:41:56;;;;;;;43.60;21.17;;;-1.10;99.90;;;;;;5072690;28;20244;-73
2021/12/29 09:44:23;;;;;;;46.50;20.57;;;-1.10;99.90;;;;;;5060723;28;20203;-74
2021/12/29 09:46:50;;;;;;;43.57;20.40;;;-1.20;99.90;;;;;;5072961;28;20220;-73
2021/12/29 09:49:18;;;;;;;41.67;20.33;;;-1.20;99.90;;;;;;5072860;28;20201;-73
2021/12/29 09:51:45;;;;;;;37.47;17.77;;;-1.20;99.90;;;;;;5073801;28;20189;-74
2021/12/29 09:54:12;;;;;;;39.10;19.60;;;-1.30;99.90;;;;;;5078270;28;20323;-74
2021/12/29 09:56:39;;;;;;;45.60;21.63;;;-1.30;99.90;;;;;;5072026;28;20229;-72
2021/12/29 09:59:06;;;;;;;42.20;21.13;;;-1.30;99.90;;;;;;5073547;28;20559;-71
2021/12/29 10:01:33;;;;;;;50.97;22.23;;;-1.40;99.90;;;;;;5074056;28;20237;-72
2021/12/29 10:04:00;;;;;;;42.57;20.80;;;-1.40;99.90;;;;;;5074808;28;20262;-73
2021/12/29 10:06:29;;;;;;;47.40;22.03;;;-1.30;99.90;;;;;;5073620;28;20301;-69
2021/12/29 10:08:56;;;;;;;43.33;22.17;;;-1.30;99.90;;;;;;5071386;28;20320;-67
2021/12/29 10:11:29;;;;;;;48.33;23.93;;;-1.30;99.90;;;;;;5072496;28;20304;-74
2021/12/29 10:13:56;;;;;;;47.73;22.03;;;-1.20;99.90;;;;;;5073229;28;20212;-72
2021/12/29 10:16:26;;;;;;;43.93;20.57;;;-1.20;99.90;;;;;;5071709;28;20658;-70
2021/12/29 10:19:00;;;;;;;41.30;21.67;;;-1.20;99.90;;;;;;5065674;28;20320;-73
2021/12/29 10:21:29;;;;;;;44.10;21.33;;;-1.10;99.90;;;;;;5070743;28;20627;-74
2021/12/29 10:23:58;;;;;;;43.43;19.40;;;-1.10;99.90;;;;;;5072761;28;20690;-75
2021/12/29 10:26:26;;;;;;;42.00;20.70;;;-1.00;99.90;;;;;;5070879;28;20284;-74
2021/12/29 10:28:56;;;;;;;43.83;21.07;;;-1.00;99.90;;;;;;5070467;28;20239;-69
2021/12/29 10:31:25;;;;;;;43.30;20.90;;;-1.00;99.90;;;;;;5070638;28;20205;-73
2021/12/29 10:33:56;;;;;;;42.57;23.23;;;-1.00;99.90;;;;;;5068960;28;20241;-74
2021/12/29 10:36:25;;;;;;;41.40;20.73;;;-1.00;99.90;;;;;;5063643;28;20450;-72
2021/12/29 10:38:59;;;;;;;44.73;21.87;;;-1.10;99.90;;;;;;5076759;28;20640;-73
2021/12/29 10:41:28;;;;;;;51.53;22.13;;;-1.10;99.90;;;;;;5076605;28;20249;-72
2021/12/29 10:43:58;;;;;;;43.47;21.23;;;-1.00;99.90;;;;;;5076949;28;20606;-72
2021/12/29 10:46:26;;;;;;;41.80;21.57;;;-1.00;99.90;;;;;;5075645;28;20225;-72
2021/12/29 10:48:54;;;;;;;45.67;22.00;;;-1.10;99.90;;;;;;5075887;28;20248;-70
2021/12/29 10:51:28;;;;;;;44.00;21.93;;;-1.10;99.90;;;;;;5075460;28;20213;-73
2021/12/29 10:54:05;;;;;;;42.70;21.10;;;-1.00;99.90;;;;;;5071791;28;20197;-71
2021/12/29 10:56:33;;;;;;;42.13;22.03;;;-1.00;99.90;;;;;;5061768;28;20221;-71
2021/12/29 10:59:11;;;;;;;47.27;22.73;;;-1.00;99.90;;;;;;5075128;28;20252;-72
2021/12/29 11:01:38;;;;;;;51.63;23.20;;;-1.00;99.90;;;;;;5075751;28;20228;-73
2021/12/29 11:04:05;;;;;;;46.20;22.37;;;-0.90;99.90;;;;;;5074214;28;20277;-72
2021/12/29 11:06:32;;;;;;;45.07;21.37;;;-0.90;99.90;;;;;;5072460;28;20982;-73
2021/12/29 11:09:02;;;;;;;48.13;23.43;;;-0.90;99.90;;;;;;5067140;28;20220;-73
2021/12/29 11:11:34;;;;;;;44.50;20.93;;;-0.80;99.90;;;;;;5075517;28;20662;-73
2021/12/29 11:14:08;;;;;;;50.10;22.50;;;-0.80;99.90;;;;;;5073052;28;20300;-75
2021/12/29 11:16:35;;;;;;;44.57;21.87;;;-0.70;99.90;;;;;;5062491;28;20233;-73
2021/12/29 11:19:02;;;;;;;52.43;23.20;;;-0.60;99.90;;;;;;5074578;28;20291;-73
2021/12/29 11:21:32;;;;;;;47.43;22.57;;;-0.60;99.90;;;;;;5075540;28;20216;-72
2021/12/29 11:24:12;;;;;;;43.23;22.07;;;-0.60;99.90;;;;;;5075577;28;20268;-74
2021/12/29 11:26:39;;;;;;;48.47;23.37;;;-0.60;99.90;;;;;;5071994;28;20562;-74
2021/12/29 11:29:11;;;;;;;48.17;23.63;;;-0.60;99.90;;;;;;5075278;28;20237;-74
2021/12/29 11:31:40;;;;;;;55.20;25.57;;;-0.70;99.90;;;;;;5076445;28;20215;-73
2021/12/29 11:34:16;;;;;;;50.23;25.07;;;-0.70;99.90;;;;;;5074789;28;20201;-74
2021/12/29 11:36:43;;;;;;;48.10;24.20;;;-0.70;99.90;;;;;;5074277;28;20287;-73
2021/12/29 11:39:12;;;;;;;45.50;22.77;;;-0.70;99.90;;;;;;5074065;28;20212;-73
2021/12/29 11:41:42;;;;;;;52.93;23.27;;;-0.70;99.90;;;;;;5075530;28;20654;-73
2021/12/29 11:44:09;;;;;;;52.37;24.90;;;-0.70;99.90;;;;;;5074402;28;20251;-72
2021/12/29 11:46:37;;;;;;;44.77;23.60;;;-0.70;99.90;;;;;;5074988;28;20221;-73
2021/12/29 11:49:06;;;;;;;49.90;22.93;;;-0.70;99.90;;;;;;5071968;28;20243;-73
2021/12/29 11:51:38;;;;;;;50.47;25.77;;;-0.70;99.90;;;;;;5074332;28;20252;-74
2021/12/29 11:54:12;;;;;;;54.60;25.23;;;-0.70;99.90;;;;;;5074465;28;20215;-74
2021/12/29 11:56:44;;;;;;;49.33;24.63;;;-0.80;99.90;;;;;;5074372;28;20311;-73
2021/12/29 11:59:11;;;;;;;51.63;24.43;;;-0.60;99.90;;;;;;5074569;28;20205;-74
2021/12/29 12:01:38;;;;;;;52.20;23.57;;;-0.60;99.90;;;;;;5075383;28;20209;-74
2021/12/29 12:04:09;;;;;;;47.13;24.63;;;-0.60;99.90;;;;;;5074970;28;20255;-74
2021/12/29 12:06:41;;;;;;;56.10;24.90;;;-0.60;99.90;;;;;;5066858;28;20247;-73
2021/12/29 12:09:12;;;;;;;57.60;25.70;;;-0.60;99.90;;;;;;5074422;28;20583;-73
2021/12/29 12:11:42;;;;;;;48.63;25.07;;;-0.60;99.90;;;;;;5075184;28;20296;-76
2021/12/29 12:14:21;;;;;;;49.67;25.13;;;-0.70;99.90;;;;;;5076058;28;20228;-73
2021/12/29 12:16:50;;;;;;;53.80;26.33;;;-0.70;99.90;;;;;;5075092;28;20691;-73
2021/12/29 12:19:22;;;;;;;54.87;25.40;;;-0.60;99.90;;;;;;5074704;28;20240;-75
2021/12/29 12:21:49;;;;;;;50.17;25.57;;;-0.50;99.90;;;;;;5076348;28;20233;-73
2021/12/29 12:24:18;;;;;;;49.70;26.00;;;-0.60;99.90;;;;;;5061315;28;20205;-73
2021/12/29 12:26:55;;;;;;;58.57;26.60;;;-0.50;99.90;;;;;;5073421;28;20298;-73
2021/12/29 12:29:24;;;;;;;55.33;26.97;;;-0.60;99.90;;;;;;5073424;28;20243;-74
2021/12/29 12:32:12;;;;;;;52.83;24.97;;;-0.60;99.90;;;;;;5074273;28;20300;-74
2021/12/29 12:34:51;;;;;;;56.37;25.33;;;-0.60;99.90;;;;;;5062381;28;20205;-73